Terminal Aerodrome Forecast
Issued by NWS Charleston, WV

Current Version | Previous Version | Graphics & Text | Print | Product List | Glossary On
Versions: 1 2 3 4 5 6 7 8 9 10 11 12 13 14 15 16 17 18 19 20 21 22 23 24 25 26 27 28
000
FTUS41 KRLX 022332
TAFCRW
TAF
KCRW 022332Z 0300/0324 04004KT 5SM -DZ BR BKN007
     FM030200 VRB03KT 5SM BR OVC007
     FM030800 00000KT 2SM BR OVC006
     FM031000 00000KT 3SM BR OVC007
     FM031400 00000KT 5SM BR OVC020
     FM031500 00000KT P6SM OVC025
     FM031800 00000KT P6SM VCTS BKN030CB=

USA.gov is the U.S. government's official web portal to all federal, state and local government web resources and services.